Aberdeen, Idaho
Current Conditions -  °F | °C
As of 4:53 PM on Thursday 27 Nov 2014 (Local Time) from KPIH Reporting Station
Clear Clear  
Wind Chill: 54°   Ceiling: Unl
Heat Index: 54°   Visibility: 10mi
Dew Point: 27°   Wind: 14mph
Humidity: 35%   Direction: 190°S
Pressure: 30.13"   Gusts: NA
Location:  42.94°N, 112.84°W
Report Text: KPIH 272353Z 19012KT 10SM CLR 12/M03 A3013 RMK AO2 SLP185 T01221028 10167 20122 56012
Loading
Personal Weather Stations






























Interactive Weather Map New forecast layout! Learn more

10-Day Weather Forecast

Advertisements
Track Severe Weather on mobile